createdAt,value
2023-05-21T00:00:51.775Z,79.90
2023-05-21T00:03:42.305Z,79.91
2023-05-21T00:06:10.233Z,79.49
2023-05-21T00:08:37.928Z,79.21
2023-05-21T00:11:06.741Z,79.77
2023-05-21T00:13:35.091Z,80.73
2023-05-21T00:16:04.106Z,80.07
2023-05-21T00:18:32.580Z,80.24
2023-05-21T00:21:01.737Z,80.67
2023-05-21T00:23:32.758Z,80.86
2023-05-21T00:26:00.932Z,82.29
2023-05-21T00:28:28.915Z,82.26
2023-05-21T00:30:56.723Z,82.79
2023-05-21T00:33:26.844Z,82.21
2023-05-21T00:35:55.412Z,82.05
2023-05-21T00:38:23.692Z,82.29
2023-05-21T00:40:51.494Z,82.77
2023-05-21T00:43:19.458Z,82.67
2023-05-21T00:45:48.786Z,81.99
2023-05-21T00:48:16.482Z,82.86
2023-05-21T00:50:45.006Z,84.69
2023-05-21T00:53:15.391Z,81.95
2023-05-21T00:55:43.103Z,82.85
2023-05-21T00:58:11.098Z,82.72
2023-05-21T01:00:40.814Z,82.49
2023-05-21T01:03:09.610Z,82.65
2023-05-21T01:05:37.970Z,83.03
2023-05-21T01:08:07.680Z,82.74
2023-05-21T01:10:35.555Z,83.28
2023-05-21T01:13:03.479Z,83.08
2023-05-21T01:15:31.338Z,83.43
2023-05-21T01:17:59.854Z,83.44
2023-05-21T01:20:28.667Z,83.29
2023-05-21T01:22:57.316Z,83.69
2023-05-21T01:25:25.465Z,83.76
2023-05-21T01:27:53.157Z,83.46
2023-05-21T01:30:23.373Z,83.90
2023-05-21T01:33:03.059Z,84.52
2023-05-21T01:35:39.070Z,84.71
2023-05-21T01:38:19.292Z,85.43
2023-05-21T01:41:06.959Z,85.06
2023-05-21T01:43:40.412Z,85.17
2023-05-21T01:46:12.545Z,84.65
2023-05-21T01:48:42.533Z,84.46
2023-05-21T01:51:11.464Z,84.45
2023-05-21T01:53:40.822Z,84.68
2023-05-21T01:56:08.663Z,84.84
2023-05-21T01:58:36.411Z,84.57
2023-05-21T02:01:05.656Z,84.60
2023-05-21T02:03:33.972Z,84.80
2023-05-21T02:06:02.169Z,84.30
2023-05-21T02:08:31.355Z,84.77
2023-05-21T02:10:59.762Z,84.71
2023-05-21T02:13:29.122Z,85.71
2023-05-21T02:15:56.902Z,85.13
2023-05-21T02:18:26.630Z,85.32
2023-05-21T02:20:54.801Z,85.44
2023-05-21T02:23:22.582Z,86.37
2023-05-21T02:25:51.686Z,85.67
2023-05-21T02:28:19.565Z,85.26
2023-05-21T02:30:47.307Z,85.88
2023-05-21T02:33:16.304Z,85.67
2023-05-21T02:35:44.632Z,85.58
2023-05-21T02:38:13.643Z,85.57
2023-05-21T02:40:41.622Z,85.94
2023-05-21T02:43:09.600Z,85.69
2023-05-21T02:45:37.529Z,85.89
2023-05-21T02:48:06.501Z,86.03
2023-05-21T02:50:36.843Z,86.05
2023-05-21T02:53:04.689Z,85.99
2023-05-21T02:55:32.913Z,86.01
2023-05-21T02:58:01.242Z,85.97
2023-05-21T03:00:28.990Z,85.56
2023-05-21T03:02:57.162Z,86.11
2023-05-21T03:05:25.817Z,86.22
2023-05-21T03:07:53.521Z,86.49
2023-05-21T03:10:21.970Z,86.23
2023-05-21T03:12:49.769Z,86.35
2023-05-21T03:15:18.168Z,86.45
2023-05-21T03:17:46.084Z,86.28
2023-05-21T03:20:16.399Z,86.50
2023-05-21T03:22:45.143Z,86.97
2023-05-21T03:25:13.356Z,86.84
2023-05-21T03:27:41.226Z,85.44
2023-05-21T03:30:19.072Z,86.91
2023-05-21T03:33:00.937Z,88.19
2023-05-21T03:35:28.904Z,87.46
2023-05-21T03:37:56.742Z,86.89
2023-05-21T03:40:25.223Z,86.81
2023-05-21T03:42:53.263Z,86.96
2023-05-21T03:45:21.891Z,87.29
2023-05-21T03:48:09.819Z,86.07
2023-05-21T03:50:37.654Z,89.38
2023-05-21T03:53:05.462Z,86.95
2023-05-21T03:55:33.388Z,86.41
2023-05-21T03:58:02.575Z,87.05
2023-05-21T04:00:34.643Z,88.38
2023-05-21T04:03:02.477Z,86.95
2023-05-21T04:05:30.423Z,89.40
2023-05-21T04:07:58.831Z,89.36
2023-05-21T04:10:27.130Z,88.07
2023-05-21T04:12:55.169Z,86.03
2023-05-21T04:15:24.401Z,85.78
2023-05-21T04:17:52.523Z,86.18
2023-05-21T04:20:21.018Z,85.41
2023-05-21T04:22:49.209Z,84.86
2023-05-21T04:25:17.469Z,84.92
2023-05-21T04:27:47.830Z,84.64
2023-05-21T04:30:16.052Z,84.80
2023-05-21T04:32:46.216Z,84.12
2023-05-21T04:35:15.327Z,84.24
2023-05-21T04:37:45.968Z,83.81
2023-05-21T04:40:24.393Z,82.00
2023-05-21T04:42:52.113Z,81.72
2023-05-21T04:45:21.303Z,81.29
2023-05-21T04:47:49.720Z,81.21
2023-05-21T04:50:17.589Z,80.42
2023-05-21T04:52:45.632Z,78.87
2023-05-21T04:55:13.637Z,79.50
2023-05-21T04:57:41.293Z,78.98
2023-05-21T05:00:10.407Z,78.67
2023-05-21T05:02:42.736Z,78.93
2023-05-21T05:05:11.162Z,78.06
2023-05-21T05:07:38.950Z,75.25
2023-05-21T05:10:08.787Z,75.75
2023-05-21T05:12:36.996Z,74.86
2023-05-21T05:15:06.215Z,73.51
2023-05-21T05:17:35.435Z,73.20
2023-05-21T05:20:05.125Z,74.00
2023-05-21T05:22:33.211Z,72.69
2023-05-21T05:25:00.967Z,71.74
2023-05-21T05:27:28.762Z,73.62
2023-05-21T05:29:56.524Z,72.04
2023-05-21T05:32:24.699Z,71.82
2023-05-21T05:34:52.630Z,70.17
2023-05-21T05:37:20.487Z,69.97
2023-05-21T05:39:48.262Z,67.86
2023-05-21T05:42:16.020Z,68.92
2023-05-21T05:44:44.169Z,66.92
2023-05-21T05:47:11.901Z,67.56
2023-05-21T05:49:40.766Z,66.34
2023-05-21T05:52:08.560Z,66.26
2023-05-21T05:54:36.257Z,66.24
2023-05-21T05:57:04.446Z,66.01
2023-05-21T05:59:33.830Z,67.90
2023-05-21T06:02:02.984Z,66.31
2023-05-21T06:04:31.153Z,63.60
2023-05-21T06:06:59.907Z,64.65
2023-05-21T06:09:27.586Z,65.36
2023-05-21T06:11:56.381Z,66.34
2023-05-21T06:14:24.283Z,65.52
2023-05-21T06:16:52.326Z,63.87
2023-05-21T06:19:20.195Z,65.17
2023-05-21T06:21:48.518Z,65.29
2023-05-21T06:24:16.339Z,63.61
2023-05-21T06:26:44.638Z,61.88
2023-05-21T06:29:14.270Z,61.99
2023-05-21T06:31:44.099Z,62.44
2023-05-21T06:34:12.178Z,62.85
2023-05-21T06:36:40.006Z,61.64
2023-05-21T06:39:08.100Z,62.48
2023-05-21T06:41:37.454Z,61.36
2023-05-21T06:44:23.305Z,59.69
2023-05-21T06:47:14.181Z,61.69
2023-05-21T06:49:41.903Z,59.00
2023-05-21T06:52:09.660Z,56.67
2023-05-21T06:54:37.884Z,56.40
2023-05-21T06:57:06.094Z,57.61
2023-05-21T06:59:34.214Z,59.15
2023-05-21T07:02:04.354Z,57.78
2023-05-21T07:04:32.478Z,57.78
2023-05-21T07:07:01.060Z,57.48
2023-05-21T07:09:28.770Z,58.64
2023-05-21T07:11:57.899Z,57.22
2023-05-21T07:14:26.880Z,57.03
2023-05-21T07:16:54.670Z,55.65
2023-05-21T07:19:22.550Z,53.58
2023-05-21T07:21:50.798Z,51.39
2023-05-21T07:24:18.465Z,52.07
2023-05-21T07:26:46.251Z,52.57
2023-05-21T07:29:14.257Z,50.72
2023-05-21T07:31:42.251Z,52.04
2023-05-21T07:34:11.559Z,52.22
2023-05-21T07:36:40.509Z,52.36
2023-05-21T07:39:11.290Z,53.73
2023-05-21T07:41:39.256Z,54.26
2023-05-21T07:44:08.452Z,53.23
2023-05-21T07:46:39.145Z,51.43
2023-05-21T07:49:07.202Z,51.78
2023-05-21T07:51:34.961Z,46.87
2023-05-21T07:54:04.077Z,47.66
2023-05-21T07:56:36.731Z,49.03
2023-05-21T07:59:05.902Z,50.33
2023-05-21T08:01:33.755Z,49.57
2023-05-21T08:04:05.797Z,49.25
2023-05-21T08:06:37.551Z,49.24
2023-05-21T08:09:06.811Z,46.01
2023-05-21T08:11:34.547Z,47.66
2023-05-21T08:14:02.723Z,48.22
2023-05-21T08:16:31.077Z,47.79
2023-05-21T08:18:58.930Z,46.53
2023-05-21T08:21:26.645Z,47.88
2023-05-21T08:23:54.360Z,44.83
2023-05-21T08:26:22.166Z,45.74
2023-05-21T08:28:49.861Z,47.94
2023-05-21T08:31:18.820Z,41.11
2023-05-21T08:33:54.642Z,44.31
2023-05-21T08:36:27.304Z,41.73
2023-05-21T08:39:00.097Z,42.56
2023-05-21T08:41:38.907Z,40.56
2023-05-21T08:44:12.283Z,40.55
2023-05-21T08:46:42.771Z,40.38
2023-05-21T08:49:13.061Z,40.46
2023-05-21T08:51:43.916Z,41.05
2023-05-21T08:54:13.960Z,38.99
2023-05-21T08:56:47.043Z,39.03
2023-05-21T08:59:18.276Z,39.29
2023-05-21T09:01:47.130Z,40.67
2023-05-21T09:04:27.647Z,39.49
2023-05-21T09:06:58.123Z,38.80
2023-05-21T09:10:09.915Z,39.45
2023-05-21T09:12:38.072Z,39.86
2023-05-21T09:15:07.842Z,37.11
2023-05-21T09:17:38.168Z,36.84
2023-05-21T09:20:27.636Z,37.36
2023-05-21T09:23:03.550Z,38.37
2023-05-21T09:25:39.140Z,37.89
2023-05-21T09:28:15.878Z,34.19
2023-05-21T09:30:48.051Z,32.50
2023-05-21T09:33:26.994Z,32.73
2023-05-21T09:35:54.838Z,32.15
2023-05-21T09:38:23.929Z,32.26
2023-05-21T09:40:55.182Z,34.65
2023-05-21T09:43:23.656Z,32.75
2023-05-21T09:45:57.327Z,31.66
2023-05-21T09:48:36.459Z,31.09
2023-05-21T09:51:14.958Z,31.65
2023-05-21T09:53:54.363Z,32.08
2023-05-21T09:56:24.529Z,31.13
2023-05-21T09:58:54.958Z,31.61
2023-05-21T10:01:24.276Z,30.79
2023-05-21T10:04:00.193Z,30.75
2023-05-21T10:06:29.652Z,30.19
2023-05-21T10:09:01.108Z,30.78
2023-05-21T10:11:35.139Z,31.71
2023-05-21T10:14:19.779Z,29.71
2023-05-21T10:16:48.276Z,28.91
2023-05-21T10:19:16.435Z,29.34
2023-05-21T10:21:45.726Z,30.47
2023-05-21T10:24:13.758Z,30.36
2023-05-21T10:26:42.481Z,29.68
2023-05-21T10:29:11.056Z,30.18
2023-05-21T10:31:39.902Z,31.35
2023-05-21T10:34:08.294Z,30.70
2023-05-21T10:36:37.132Z,28.40
2023-05-21T10:39:07.489Z,28.32
2023-05-21T10:41:46.348Z,29.40
2023-05-21T10:44:55.510Z,30.09
2023-05-21T10:47:29.191Z,29.94
2023-05-21T10:50:12.280Z,29.37
2023-05-21T10:53:16.926Z,29.08
2023-05-21T10:56:25.364Z,27.87
2023-05-21T10:59:11.884Z,28.41
2023-05-21T11:01:41.785Z,28.04
2023-05-21T11:04:10.978Z,27.15
2023-05-21T11:06:38.750Z,27.53
2023-05-21T11:09:13.955Z,27.27
2023-05-21T11:11:42.902Z,26.12
2023-05-21T11:14:36.470Z,27.20
2023-05-21T11:17:12.143Z,28.89
2023-05-21T11:19:51.014Z,28.32
2023-05-21T11:22:26.849Z,27.96
2023-05-21T11:24:57.550Z,28.47
2023-05-21T11:27:34.290Z,28.51
2023-05-21T11:30:20.622Z,29.21
2023-05-21T11:33:17.701Z,27.03
2023-05-21T11:35:47.687Z,27.72
2023-05-21T11:38:15.759Z,28.57
2023-05-21T11:40:56.483Z,28.06
2023-05-21T11:43:24.208Z,28.42
2023-05-21T11:45:52.969Z,28.58
2023-05-21T11:48:26.898Z,28.99
2023-05-21T11:50:55.998Z,29.02
2023-05-21T11:53:24.884Z,28.52
2023-05-21T11:55:57.550Z,28.62
2023-05-21T11:58:25.806Z,29.34
2023-05-21T12:00:53.731Z,28.82
2023-05-21T12:03:26.685Z,30.05
2023-05-21T12:05:55.645Z,30.17
2023-05-21T12:08:25.711Z,29.79
2023-05-21T12:10:58.863Z,30.87
2023-05-21T12:13:26.942Z,30.04
2023-05-21T12:15:54.739Z,29.51
2023-05-21T12:18:22.748Z,29.30
2023-05-21T12:20:52.175Z,29.53
2023-05-21T12:23:23.405Z,30.69
2023-05-21T12:25:53.619Z,31.21
2023-05-21T12:28:23.063Z,31.06
2023-05-21T12:30:51.483Z,31.45
2023-05-21T12:33:25.048Z,30.62
2023-05-21T12:35:53.796Z,30.55
2023-05-21T12:38:21.616Z,31.49
2023-05-21T12:40:49.554Z,31.58
2023-05-21T12:43:19.063Z,31.32
2023-05-21T12:45:47.546Z,31.36
2023-05-21T12:48:16.638Z,30.16
2023-05-21T12:50:44.376Z,30.62
2023-05-21T12:53:12.253Z,30.09
2023-05-21T12:55:40.785Z,30.60
2023-05-21T12:58:13.754Z,30.60
2023-05-21T13:00:43.421Z,32.51
2023-05-21T13:03:11.356Z,30.84
2023-05-21T13:05:41.651Z,31.19
2023-05-21T13:08:10.603Z,31.57
2023-05-21T13:10:38.549Z,31.86
2023-05-21T13:13:06.511Z,32.49
2023-05-21T13:15:34.238Z,31.64
2023-05-21T13:18:04.625Z,33.71
2023-05-21T13:20:32.593Z,34.17
2023-05-21T13:23:01.769Z,32.86
2023-05-21T13:25:32.783Z,32.48
2023-05-21T13:28:05.960Z,33.02
2023-05-21T13:30:33.909Z,33.28
2023-05-21T13:33:04.427Z,34.20
2023-05-21T13:35:32.448Z,33.35
2023-05-21T13:38:00.217Z,33.41
2023-05-21T13:40:30.209Z,33.73
2023-05-21T13:42:58.068Z,35.02
2023-05-21T13:45:29.273Z,34.46
2023-05-21T13:47:57.349Z,34.32
2023-05-21T13:50:25.397Z,35.01
2023-05-21T13:52:53.146Z,35.11
2023-05-21T13:55:21.216Z,35.76
2023-05-21T13:57:49.256Z,36.17
2023-05-21T14:00:17.077Z,35.06
2023-05-21T14:02:45.212Z,35.57
2023-05-21T14:05:14.158Z,35.35
2023-05-21T14:07:42.225Z,35.68
2023-05-21T14:10:10.463Z,36.38
2023-05-21T14:12:38.977Z,35.36
2023-05-21T14:15:07.728Z,35.38
2023-05-21T14:17:35.594Z,35.92
2023-05-21T14:20:03.723Z,34.44
2023-05-21T14:22:33.762Z,34.22
2023-05-21T14:25:03.189Z,34.23
2023-05-21T14:27:31.017Z,34.78
2023-05-21T14:29:59.901Z,33.51
2023-05-21T14:32:27.707Z,34.17
2023-05-21T14:34:56.729Z,34.75
2023-05-21T14:37:25.814Z,34.36
2023-05-21T14:39:53.555Z,33.81
2023-05-21T14:42:23.382Z,35.35
2023-05-21T14:44:52.362Z,35.06
2023-05-21T14:47:20.529Z,34.46
2023-05-21T14:49:50.874Z,36.03
2023-05-21T14:52:20.050Z,34.50
2023-05-21T14:54:48.589Z,33.62
2023-05-21T14:57:16.293Z,34.26
2023-05-21T14:59:44.268Z,34.67
2023-05-21T15:02:11.964Z,33.48
2023-05-21T15:04:39.851Z,33.68
2023-05-21T15:07:07.939Z,34.16
2023-05-21T15:09:35.774Z,33.28
2023-05-21T15:12:03.683Z,33.74
2023-05-21T15:14:31.408Z,33.13
2023-05-21T15:16:59.123Z,34.11
2023-05-21T15:19:29.100Z,34.55
2023-05-21T15:21:57.156Z,33.86
2023-05-21T15:24:27.565Z,33.58
2023-05-21T15:26:55.610Z,34.40
2023-05-21T15:29:23.833Z,34.60
2023-05-21T15:31:51.704Z,34.27
2023-05-21T15:34:21.856Z,34.26
2023-05-21T15:36:56.181Z,35.37
2023-05-21T15:39:24.414Z,34.61
2023-05-21T15:41:54.844Z,34.14
2023-05-21T15:44:25.462Z,34.68
2023-05-21T15:46:54.818Z,35.22
2023-05-21T15:49:22.785Z,34.52
2023-05-21T15:51:51.889Z,34.64
2023-05-21T15:54:22.774Z,35.04
2023-05-21T15:56:52.961Z,34.00
2023-05-21T15:59:22.246Z,33.95
2023-05-21T16:01:52.615Z,34.33
2023-05-21T16:04:23.819Z,34.15
2023-05-21T16:06:51.673Z,33.87
2023-05-21T16:09:19.404Z,34.58
2023-05-21T16:11:49.087Z,34.04
2023-05-21T16:14:16.777Z,34.25
2023-05-21T16:16:44.816Z,33.31
2023-05-21T16:19:16.664Z,33.69
2023-05-21T16:21:44.538Z,33.85
2023-05-21T16:24:12.275Z,33.73
2023-05-21T16:26:40.311Z,34.39
2023-05-21T16:29:08.231Z,34.40
2023-05-21T16:31:37.828Z,34.26
2023-05-21T16:34:06.388Z,34.65
2023-05-21T16:36:37.418Z,34.86
2023-05-21T16:39:05.421Z,35.10
2023-05-21T16:41:33.862Z,34.77
2023-05-21T16:44:04.058Z,35.10
2023-05-21T16:46:31.814Z,35.16
2023-05-21T16:48:59.879Z,35.65
2023-05-21T16:51:27.594Z,35.38
2023-05-21T16:53:55.327Z,35.67
2023-05-21T16:56:23.214Z,35.95
2023-05-21T16:58:50.993Z,36.41
2023-05-21T17:01:18.762Z,36.48
2023-05-21T17:03:46.575Z,36.12
2023-05-21T17:06:15.047Z,36.25
2023-05-21T17:08:42.772Z,36.25
2023-05-21T17:11:10.831Z,36.53
2023-05-21T17:13:38.563Z,37.02
2023-05-21T17:16:06.503Z,37.34
2023-05-21T17:18:35.538Z,37.68
2023-05-21T17:21:03.462Z,37.98
2023-05-21T17:23:31.291Z,38.21
2023-05-21T17:25:58.992Z,38.72
2023-05-21T17:28:26.718Z,38.69
2023-05-21T17:30:54.456Z,39.21
2023-05-21T17:33:22.644Z,39.32
2023-05-21T17:35:50.371Z,40.00
2023-05-21T17:38:18.037Z,39.79
2023-05-21T17:40:46.222Z,39.94
2023-05-21T17:43:13.938Z,40.22
2023-05-21T17:45:41.715Z,40.27
2023-05-21T17:48:09.462Z,40.14
2023-05-21T17:50:37.214Z,40.33
2023-05-21T17:53:04.957Z,40.51
2023-05-21T17:55:32.799Z,40.44
2023-05-21T17:58:01.013Z,40.78
2023-05-21T18:00:28.780Z,40.91
2023-05-21T18:02:58.800Z,41.19
2023-05-21T18:05:26.604Z,40.95
2023-05-21T18:07:55.740Z,40.97
2023-05-21T18:10:23.612Z,40.99
2023-05-21T18:12:51.537Z,41.11
2023-05-21T18:15:19.295Z,41.31
2023-05-21T18:17:47.632Z,41.38
2023-05-21T18:20:15.512Z,41.73
2023-05-21T18:22:44.353Z,41.46
2023-05-21T18:25:12.090Z,41.85
2023-05-21T18:27:39.915Z,42.04
2023-05-21T18:30:08.487Z,42.06
2023-05-21T18:32:38.888Z,42.38
2023-05-21T18:35:10.917Z,42.67
2023-05-21T18:37:42.156Z,43.60
2023-05-21T18:40:11.543Z,43.68
2023-05-21T18:42:40.199Z,44.30
2023-05-21T18:45:09.187Z,44.60
2023-05-21T18:47:39.151Z,45.70
2023-05-21T18:50:15.517Z,46.43
2023-05-21T18:52:43.225Z,47.31
2023-05-21T18:55:10.992Z,47.85
2023-05-21T18:57:39.471Z,49.81
2023-05-21T19:00:09.661Z,49.80
2023-05-21T19:02:37.810Z,50.32
2023-05-21T19:05:07.216Z,50.96
2023-05-21T19:07:36.175Z,51.38
2023-05-21T19:10:05.035Z,51.32
2023-05-21T19:12:36.073Z,51.81
2023-05-21T19:15:04.165Z,52.46
2023-05-21T19:17:33.444Z,54.49
2023-05-21T19:20:01.523Z,54.11
2023-05-21T19:22:29.424Z,55.03
2023-05-21T19:24:57.191Z,54.06
2023-05-21T19:27:26.256Z,54.45
2023-05-21T19:29:54.010Z,55.20
2023-05-21T19:32:23.653Z,56.48
2023-05-21T19:34:52.220Z,56.88
2023-05-21T19:37:20.573Z,57.44
2023-05-21T19:39:50.411Z,57.43
2023-05-21T19:42:21.287Z,58.71
2023-05-21T19:44:49.521Z,59.50
2023-05-21T19:47:18.535Z,60.12
2023-05-21T19:49:46.267Z,60.57
2023-05-21T19:52:14.032Z,61.09
2023-05-21T19:54:41.793Z,60.81
2023-05-21T19:57:12.313Z,60.86
2023-05-21T19:59:40.914Z,61.86
2023-05-21T20:02:12.428Z,62.08
2023-05-21T20:04:40.324Z,61.93
2023-05-21T20:07:09.010Z,61.51
2023-05-21T20:09:37.152Z,62.10
2023-05-21T20:12:06.178Z,61.66
2023-05-21T20:14:34.435Z,62.19
2023-05-21T20:17:03.396Z,62.22
2023-05-21T20:19:32.570Z,63.17
2023-05-21T20:22:00.649Z,63.48
2023-05-21T20:24:28.449Z,63.60
2023-05-21T20:26:56.136Z,64.07
2023-05-21T20:29:24.001Z,64.30
2023-05-21T20:31:52.251Z,65.82
2023-05-21T20:34:20.695Z,66.10
2023-05-21T20:36:49.280Z,67.36
2023-05-21T20:39:16.922Z,66.96
2023-05-21T20:41:46.868Z,67.19
2023-05-21T20:44:14.617Z,67.62
2023-05-21T20:46:42.441Z,67.91
2023-05-21T20:49:10.277Z,67.83
2023-05-21T20:51:38.098Z,67.97
2023-05-21T20:54:06.141Z,67.85
2023-05-21T20:56:42.017Z,67.69
2023-05-21T20:59:11.952Z,68.71
2023-05-21T21:01:40.932Z,67.90
2023-05-21T21:04:09.546Z,69.14
2023-05-21T21:06:38.617Z,69.13
2023-05-21T21:09:06.475Z,68.85
2023-05-21T21:11:34.325Z,69.81
2023-05-21T21:14:02.728Z,69.79
2023-05-21T21:16:30.888Z,70.07
2023-05-21T21:18:58.577Z,69.76
2023-05-21T21:21:27.153Z,70.72
2023-05-21T21:23:54.819Z,70.40
2023-05-21T21:26:23.260Z,70.86
2023-05-21T21:28:50.997Z,71.81
2023-05-21T21:31:18.787Z,70.98
2023-05-21T21:33:46.469Z,71.26
2023-05-21T21:36:14.611Z,70.99
2023-05-21T21:38:42.459Z,72.45
2023-05-21T21:41:10.483Z,72.45
2023-05-21T21:43:38.356Z,72.54
2023-05-21T21:46:06.062Z,73.01
2023-05-21T21:48:34.786Z,72.98
2023-05-21T21:51:02.548Z,73.74
2023-05-21T21:53:30.784Z,73.46
2023-05-21T21:56:01.008Z,73.18
2023-05-21T21:58:28.745Z,73.97
2023-05-21T22:00:57.273Z,74.39
2023-05-21T22:03:25.029Z,74.96
2023-05-21T22:05:55.131Z,74.31
2023-05-21T22:08:22.858Z,74.71
2023-05-21T22:10:50.952Z,74.77
2023-05-21T22:13:18.957Z,75.30
2023-05-21T22:15:47.353Z,75.45
2023-05-21T22:18:22.455Z,74.97
2023-05-21T22:20:56.062Z,75.64
2023-05-21T22:23:23.715Z,74.34
2023-05-21T22:25:52.316Z,77.21
2023-05-21T22:28:22.358Z,77.78
2023-05-21T22:30:50.123Z,77.09
2023-05-21T22:33:18.003Z,76.67
2023-05-21T22:35:46.253Z,76.88
2023-05-21T22:38:14.167Z,77.82
2023-05-21T22:40:41.815Z,77.90
2023-05-21T22:43:09.686Z,76.60
2023-05-21T22:45:38.479Z,77.73
2023-05-21T22:48:07.331Z,77.35
2023-05-21T22:50:36.271Z,77.58
2023-05-21T22:53:04.290Z,77.15
2023-05-21T22:55:32.054Z,76.98
2023-05-21T22:57:59.733Z,77.30
2023-05-21T23:00:27.510Z,76.68
2023-05-21T23:02:55.705Z,76.91
2023-05-21T23:05:23.492Z,77.67
2023-05-21T23:07:51.456Z,77.71
2023-05-21T23:10:19.225Z,77.65
2023-05-21T23:12:46.983Z,77.83
2023-05-21T23:15:14.709Z,78.24
2023-05-21T23:17:42.490Z,78.99
2023-05-21T23:20:10.593Z,78.55
2023-05-21T23:22:39.870Z,79.62
2023-05-21T23:25:08.379Z,78.96
2023-05-21T23:27:36.060Z,79.32
2023-05-21T23:30:03.843Z,79.17
2023-05-21T23:32:31.626Z,78.75
2023-05-21T23:34:59.300Z,79.01
2023-05-21T23:37:27.034Z,79.00
2023-05-21T23:39:54.711Z,79.00
2023-05-21T23:42:22.535Z,79.56
2023-05-21T23:44:50.261Z,79.44
2023-05-21T23:47:18.121Z,79.48
2023-05-21T23:49:45.962Z,79.12
2023-05-21T23:52:17.265Z,79.69
2023-05-21T23:54:45.047Z,79.43
2023-05-21T23:57:13.343Z,81.00
2023-05-21T23:59:41.146Z,80.01
